createdAt,value
2022-11-07T00:01:40.760Z,7.97
2022-11-07T00:04:07.668Z,8.45
2022-11-07T00:06:37.347Z,8.75
2022-11-07T00:09:04.435Z,8.85
2022-11-07T00:11:31.592Z,9.60
2022-11-07T00:13:58.501Z,9.35
2022-11-07T00:16:26.746Z,9.30
2022-11-07T00:18:53.654Z,9.38
2022-11-07T00:21:20.553Z,9.55
2022-11-07T00:23:47.428Z,9.27
2022-11-07T00:26:15.258Z,9.45
2022-11-07T00:28:44.154Z,9.77
2022-11-07T00:31:14.407Z,9.30
2022-11-07T00:33:42.747Z,9.30
2022-11-07T00:36:17.929Z,8.57
2022-11-07T00:41:12.547Z,9.48
2022-11-07T00:43:39.785Z,9.93
2022-11-07T00:46:09.658Z,10.27
2022-11-07T00:48:37.216Z,9.68
2022-11-07T00:51:24.492Z,9.65
2022-11-07T00:53:52.185Z,11.10
2022-11-07T00:56:23.406Z,10.02
2022-11-07T00:58:55.891Z,10.38
2022-11-07T01:01:27.953Z,9.68
2022-11-07T01:04:14.044Z,9.20
2022-11-07T01:06:43.795Z,10.32
2022-11-07T01:09:16.211Z,10.63
2022-11-07T01:11:44.134Z,9.98
2022-11-07T01:14:14.309Z,11.75
2022-11-07T01:16:42.004Z,11.88
2022-11-07T01:19:10.672Z,11.27
2022-11-07T01:21:40.850Z,12.23
2022-11-07T01:24:11.336Z,12.02
2022-11-07T01:26:41.191Z,12.68
2022-11-07T01:29:08.352Z,11.88
2022-11-07T01:31:35.927Z,11.68
2022-11-07T01:34:03.262Z,11.75
2022-11-07T01:36:30.501Z,12.20
2022-11-07T01:38:57.402Z,13.38
2022-11-07T01:41:32.012Z,11.85
2022-11-07T01:44:07.872Z,12.48
2022-11-07T01:46:40.381Z,13.15
2022-11-07T01:49:28.263Z,11.32
2022-11-07T01:52:02.656Z,13.07
2022-11-07T01:54:36.354Z,13.50
2022-11-07T01:57:19.538Z,14.07
2022-11-07T01:59:47.329Z,13.90
2022-11-07T02:02:14.758Z,13.45
2022-11-07T02:04:42.618Z,14.00
2022-11-07T02:07:30.692Z,13.43
2022-11-07T02:09:59.575Z,13.27
2022-11-07T02:12:27.893Z,13.13
2022-11-07T02:14:56.209Z,15.35
2022-11-07T02:17:23.362Z,13.68
2022-11-07T02:19:54.035Z,14.27
2022-11-07T02:22:41.152Z,13.82
2022-11-07T02:25:13.388Z,14.40
2022-11-07T02:27:43.172Z,13.80
2022-11-07T02:30:16.605Z,13.48
2022-11-07T02:32:43.951Z,15.95
2022-11-07T02:35:42.056Z,15.05
2022-11-07T02:38:32.317Z,14.90
2022-11-07T02:41:08.219Z,14.50
2022-11-07T02:43:39.228Z,13.60
2022-11-07T02:46:10.257Z,14.25
2022-11-07T02:49:01.802Z,13.93
2022-11-07T02:51:29.203Z,14.32
2022-11-07T02:53:57.248Z,13.88
2022-11-07T02:56:24.886Z,14.15
2022-11-07T02:58:52.851Z,14.23
2022-11-07T03:01:20.855Z,14.30
2022-11-07T03:03:50.581Z,13.60
2022-11-07T03:06:25.064Z,15.05
2022-11-07T03:08:52.777Z,14.20
2022-11-07T03:11:19.802Z,16.55
2022-11-07T03:13:50.010Z,14.07
2022-11-07T03:16:19.258Z,15.70
2022-11-07T03:18:46.218Z,14.27
2022-11-07T03:21:13.637Z,15.32
2022-11-07T03:23:40.730Z,14.63
2022-11-07T03:26:07.675Z,15.75
2022-11-07T03:28:34.674Z,14.32
2022-11-07T03:31:03.629Z,15.10
2022-11-07T03:33:31.331Z,13.73
2022-11-07T03:35:58.651Z,13.43
2022-11-07T03:38:25.660Z,13.52
2022-11-07T03:40:52.579Z,14.80
2022-11-07T03:43:19.420Z,13.77
2022-11-07T03:45:46.553Z,14.30
2022-11-07T03:48:13.316Z,15.05
2022-11-07T03:50:40.138Z,13.13
2022-11-07T03:53:07.003Z,15.55
2022-11-07T03:55:33.888Z,14.88
2022-11-07T03:58:00.690Z,16.10
2022-11-07T04:00:27.672Z,14.75
2022-11-07T04:02:54.722Z,14.93
2022-11-07T04:05:21.847Z,16.70
2022-11-07T04:07:48.730Z,16.02
2022-11-07T04:10:15.660Z,15.32
2022-11-07T04:13:02.965Z,20.50
2022-11-07T04:15:48.285Z,15.23
2022-11-07T04:18:15.271Z,16.52
2022-11-07T04:20:42.065Z,15.48
2022-11-07T04:23:08.967Z,15.65
2022-11-07T04:26:30.141Z,16.63
2022-11-07T04:28:57.257Z,14.15
2022-11-07T04:31:24.186Z,14.05
2022-11-07T04:33:51.787Z,14.18
2022-11-07T04:36:19.114Z,12.05
2022-11-07T04:38:46.035Z,15.07
2022-11-07T04:41:24.123Z,14.60
2022-11-07T04:43:51.699Z,13.70
2022-11-07T04:46:18.531Z,13.18
2022-11-07T04:48:45.515Z,13.05
2022-11-07T04:51:20.302Z,14.07
2022-11-07T04:53:47.248Z,13.00
2022-11-07T04:56:14.103Z,13.40
2022-11-07T04:58:40.938Z,13.10
2022-11-07T05:01:07.812Z,14.27
2022-11-07T05:03:40.359Z,14.25
2022-11-07T05:06:14.393Z,13.50
2022-11-07T05:08:41.234Z,13.25
2022-11-07T05:11:08.073Z,12.93
2022-11-07T05:13:35.145Z,12.30
2022-11-07T05:16:01.923Z,13.50
2022-11-07T05:18:28.717Z,13.50
2022-11-07T05:20:56.292Z,12.70
2022-11-07T05:23:23.131Z,13.10
2022-11-07T05:25:54.170Z,11.95
2022-11-07T05:28:36.797Z,12.73
2022-11-07T05:34:44.248Z,13.73
2022-11-07T05:38:58.291Z,12.18
2022-11-07T05:42:34.693Z,12.77
2022-11-07T05:45:13.317Z,11.50
2022-11-07T05:47:40.175Z,11.02
2022-11-07T05:50:07.910Z,12.80
2022-11-07T05:52:34.818Z,13.95
2022-11-07T05:55:01.649Z,12.23
2022-11-07T05:57:30.614Z,12.65
2022-11-07T05:59:57.518Z,13.20
2022-11-07T06:02:24.432Z,13.38
2022-11-07T06:04:51.377Z,12.20
2022-11-07T06:07:18.174Z,12.98
2022-11-07T06:09:45.077Z,13.10
2022-11-07T06:12:33.658Z,13.05
2022-11-07T06:15:00.710Z,12.90
2022-11-07T06:17:27.546Z,12.50
2022-11-07T06:19:54.341Z,13.32
2022-11-07T06:22:21.192Z,14.82
2022-11-07T06:24:48.160Z,14.57
2022-11-07T06:27:15.017Z,13.55
2022-11-07T06:29:41.795Z,14.63
2022-11-07T06:33:08.100Z,13.25
2022-11-07T06:35:36.370Z,14.03
2022-11-07T06:38:06.253Z,14.88
2022-11-07T06:40:53.771Z,14.63
2022-11-07T06:51:45.350Z,15.23
2022-11-07T06:54:14.772Z,13.80
2022-11-07T06:56:41.639Z,14.70
2022-11-07T06:59:33.187Z,12.90
2022-11-07T07:02:21.686Z,14.23
2022-11-07T07:05:00.693Z,15.02
2022-11-07T07:07:30.526Z,15.85
2022-11-07T07:13:41.836Z,14.77
2022-11-07T07:16:09.560Z,13.70
2022-11-07T07:18:55.922Z,13.70
2022-11-07T07:22:13.850Z,12.35
2022-11-07T07:24:40.784Z,12.15
2022-11-07T07:30:30.303Z,12.05
2022-11-07T07:33:02.003Z,12.25
2022-11-07T07:35:29.041Z,11.95
2022-11-07T07:37:55.845Z,11.20
2022-11-07T07:40:45.962Z,10.55
2022-11-07T07:43:13.077Z,10.70
2022-11-07T07:45:40.097Z,11.45
2022-11-07T07:48:07.051Z,10.77
2022-11-07T07:50:33.871Z,9.88
2022-11-07T07:53:04.780Z,10.27
2022-11-07T07:55:35.341Z,9.68
2022-11-07T07:58:02.326Z,10.57
2022-11-07T08:00:29.170Z,9.25
2022-11-07T08:03:10.274Z,11.05
2022-11-07T08:06:28.601Z,9.80
2022-11-07T08:08:55.436Z,8.90
2022-11-07T08:11:22.551Z,9.30
2022-11-07T08:13:49.602Z,8.63
2022-11-07T08:16:16.475Z,8.25
2022-11-07T08:18:43.390Z,8.02
2022-11-07T08:21:10.773Z,8.23
2022-11-07T08:23:38.022Z,8.73
2022-11-07T08:26:05.700Z,8.63
2022-11-07T08:28:35.900Z,8.40
2022-11-07T08:31:10.162Z,7.43
2022-11-07T08:33:38.195Z,7.57
2022-11-07T08:36:07.338Z,7.15
2022-11-07T08:38:36.262Z,7.70
2022-11-07T08:41:04.192Z,7.78
2022-11-07T08:43:31.162Z,7.90
2022-11-07T08:45:58.118Z,7.18
2022-11-07T08:48:25.111Z,6.30
2022-11-07T08:50:55.016Z,6.45
2022-11-07T08:53:28.146Z,5.45
2022-11-07T08:56:10.445Z,5.60
2022-11-07T08:58:38.086Z,5.72
2022-11-07T09:02:14.437Z,5.45
2022-11-07T09:04:28.274Z,5.63
2022-11-07T09:06:57.508Z,5.55
2022-11-07T09:09:24.402Z,4.60
2022-11-07T09:11:51.239Z,4.40
2022-11-07T09:14:18.093Z,4.13
2022-11-07T09:16:53.809Z,4.25
2022-11-07T09:19:20.769Z,3.33
2022-11-07T09:21:48.611Z,3.78
2022-11-07T09:24:15.631Z,3.33
2022-11-07T09:26:42.549Z,3.40
2022-11-07T09:29:09.474Z,3.53
2022-11-07T09:31:36.351Z,3.53
2022-11-07T09:34:03.234Z,3.72
2022-11-07T09:36:30.085Z,3.33
2022-11-07T09:38:57.451Z,3.10
2022-11-07T09:41:42.830Z,2.72
2022-11-07T09:47:14.571Z,2.85
2022-11-07T09:49:51.517Z,3.10
2022-11-07T09:52:43.579Z,2.80
2022-11-07T09:55:25.670Z,2.45
2022-11-07T09:58:00.396Z,3.20
2022-11-07T10:00:31.592Z,2.67
2022-11-07T10:03:01.795Z,2.95
2022-11-07T10:06:44.657Z,2.92
2022-11-07T10:09:27.110Z,2.30
2022-11-07T10:12:55.354Z,2.55
2022-11-07T10:15:45.432Z,2.30
2022-11-07T10:18:51.305Z,2.60
2022-11-07T10:21:45.189Z,2.33
2022-11-07T10:24:54.521Z,2.00
2022-11-07T10:27:23.508Z,1.67
2022-11-07T10:29:54.589Z,1.20
2022-11-07T10:32:39.843Z,1.40
2022-11-07T10:35:13.005Z,1.30
2022-11-07T10:37:39.856Z,1.23
2022-11-07T10:40:26.189Z,1.10
2022-11-07T10:43:40.808Z,1.35
2022-11-07T10:46:21.407Z,1.33
2022-11-07T10:49:02.985Z,1.45
2022-11-07T10:51:42.674Z,1.30
2022-11-07T10:54:25.978Z,2.35
2022-11-07T10:57:16.492Z,1.80
2022-11-07T10:59:52.411Z,1.70
2022-11-07T11:02:31.178Z,1.10
2022-11-07T11:05:23.001Z,1.40
2022-11-07T11:07:52.841Z,1.20
2022-11-07T11:10:31.058Z,1.15
2022-11-07T11:12:57.992Z,1.20
2022-11-07T11:15:32.743Z,1.90
2022-11-07T11:18:06.543Z,2.40
2022-11-07T11:21:04.318Z,2.00
2022-11-07T11:23:36.506Z,1.52
2022-11-07T11:26:16.096Z,1.30
2022-11-07T11:28:49.877Z,1.42
2022-11-07T11:31:39.844Z,0.95
2022-11-07T11:34:49.290Z,1.55
2022-11-07T11:37:23.053Z,3.63
2022-11-07T11:41:03.302Z,1.73
2022-11-07T11:48:02.245Z,1.20
2022-11-07T11:51:05.403Z,1.02
2022-11-07T12:15:49.481Z,1.10
2022-11-07T12:18:24.033Z,0.90
2022-11-07T12:21:21.083Z,1.55
2022-11-07T12:24:44.194Z,1.58
2022-11-07T12:27:33.806Z,1.00
2022-11-07T12:30:48.612Z,1.10
2022-11-07T12:33:54.417Z,1.10
2022-11-07T12:37:23.894Z,1.25
2022-11-07T12:40:30.823Z,1.23
2022-11-07T12:43:29.560Z,1.60
2022-11-07T12:46:02.152Z,0.93
2022-11-07T12:48:55.835Z,1.10
2022-11-07T12:52:28.707Z,1.38
2022-11-07T12:55:08.716Z,0.80
2022-11-07T12:57:39.156Z,1.83
2022-11-07T13:00:16.703Z,1.20
2022-11-07T13:03:18.285Z,0.98
2022-11-07T13:06:07.956Z,1.00
2022-11-07T13:08:59.462Z,1.08
2022-11-07T13:11:51.912Z,1.10
2022-11-07T13:14:30.796Z,1.00
2022-11-07T13:26:32.873Z,1.00
2022-11-07T13:29:41.919Z,1.10
2022-11-07T13:32:13.103Z,1.00
2022-11-07T13:34:55.657Z,1.25
2022-11-07T13:37:32.082Z,1.15
2022-11-07T13:40:30.985Z,1.27
2022-11-07T13:43:07.377Z,1.10
2022-11-07T13:45:52.062Z,1.30
2022-11-07T13:48:42.043Z,1.00
2022-11-07T13:51:39.826Z,1.00
2022-11-07T13:54:47.291Z,1.48
2022-11-07T13:57:26.841Z,0.95
2022-11-07T14:00:10.960Z,1.05
2022-11-07T14:02:55.291Z,0.93
2022-11-07T14:05:36.408Z,1.30
2022-11-07T14:08:31.360Z,1.90
2022-11-07T14:10:59.580Z,1.53
2022-11-07T14:13:46.074Z,1.60
2022-11-07T14:16:22.506Z,1.60
2022-11-07T14:18:59.382Z,1.35
2022-11-07T14:21:36.607Z,1.20
2022-11-07T14:24:20.670Z,1.55
2022-11-07T14:27:05.099Z,1.08
2022-11-07T14:29:33.104Z,1.30
2022-11-07T14:32:07.251Z,1.20
2022-11-07T14:34:46.323Z,1.30
2022-11-07T14:37:18.386Z,4.03
2022-11-07T14:39:45.920Z,48.00
2022-11-07T14:42:23.236Z,6.68
2022-11-07T14:44:55.838Z,4.53
2022-11-07T14:47:35.077Z,2.80
2022-11-07T14:50:04.429Z,3.20
2022-11-07T14:53:04.872Z,3.22
2022-11-07T15:07:52.850Z,4.00
2022-11-07T15:10:38.904Z,2.33
2022-11-07T15:13:24.706Z,18.13
2022-11-07T15:16:15.344Z,44.20
2022-11-07T15:18:47.357Z,24.02
2022-11-07T15:21:33.738Z,13.48
2022-11-07T15:27:44.203Z,3.22
2022-11-07T15:30:59.674Z,2.42
2022-11-07T15:33:57.922Z,6.70
2022-11-07T15:36:25.929Z,1.48
2022-11-07T15:38:54.358Z,1.27
2022-11-07T15:41:21.270Z,1.67
2022-11-07T15:43:48.438Z,1.00
2022-11-07T15:46:35.123Z,1.40
2022-11-07T15:49:02.673Z,1.20
2022-11-07T15:51:31.000Z,1.10
2022-11-07T15:53:58.308Z,1.05
2022-11-07T15:56:26.399Z,1.20
2022-11-07T15:58:55.292Z,1.05
2022-11-07T16:06:00.928Z,1.10
2022-11-07T16:09:33.175Z,0.90
2022-11-07T16:13:06.793Z,1.17
2022-11-07T16:16:26.515Z,1.70
2022-11-07T16:18:54.131Z,2.03
2022-11-07T16:21:24.353Z,2.28
2022-11-07T16:23:51.356Z,2.00
2022-11-07T16:26:28.829Z,4.20
2022-11-07T16:28:55.952Z,15.13
2022-11-07T16:31:31.918Z,11.25
2022-11-07T16:39:01.370Z,4.68
2022-11-07T16:41:29.838Z,2.55
2022-11-07T16:43:56.793Z,2.58
2022-11-07T16:46:27.158Z,2.30
2022-11-07T16:49:05.078Z,2.05
2022-11-07T16:51:33.013Z,2.25
2022-11-07T16:53:59.850Z,2.55
2022-11-07T16:56:32.234Z,2.78
2022-11-07T16:58:59.982Z,2.38
2022-11-07T17:01:28.478Z,3.00
2022-11-07T17:03:55.521Z,3.45
2022-11-07T17:06:28.047Z,3.70
2022-11-07T17:09:01.192Z,3.63
2022-11-07T17:21:04.297Z,3.72
2022-11-07T17:23:32.028Z,4.38
2022-11-07T17:26:07.593Z,4.25
2022-11-07T17:33:35.935Z,5.10
2022-11-07T17:36:03.278Z,5.18
2022-11-07T17:38:32.654Z,5.20
2022-11-07T17:41:50.341Z,4.90
2022-11-07T17:54:33.224Z,4.70
2022-11-07T17:57:00.150Z,4.78
2022-11-07T18:17:15.292Z,4.28
2022-11-07T18:20:06.813Z,4.03
2022-11-07T18:22:37.364Z,4.28
2022-11-07T18:25:06.921Z,4.85
2022-11-07T18:27:37.698Z,4.72
2022-11-07T18:30:35.502Z,5.05
2022-11-07T18:33:25.918Z,4.20
2022-11-07T18:36:21.083Z,4.97
2022-11-07T18:38:48.510Z,5.13
2022-11-07T18:45:39.217Z,5.15
2022-11-07T18:48:06.260Z,5.07
2022-11-07T18:50:38.237Z,5.32
2022-11-07T18:53:05.076Z,5.38
2022-11-07T18:55:31.977Z,5.50
2022-11-07T18:57:59.240Z,4.90
2022-11-07T19:00:35.310Z,5.38
2022-11-07T19:03:06.611Z,5.63
2022-11-07T19:05:38.613Z,5.35
2022-11-07T19:08:07.982Z,4.93
2022-11-07T19:10:34.836Z,5.40
2022-11-07T19:35:26.386Z,5.20
2022-11-07T19:37:53.246Z,5.93
2022-11-07T19:46:58.967Z,6.25
2022-11-07T19:49:51.894Z,6.00
2022-11-07T19:52:46.245Z,5.88
2022-11-07T19:55:24.669Z,5.50
2022-11-07T19:59:01.086Z,5.90
2022-11-07T20:01:39.231Z,4.93
2022-11-07T20:04:08.837Z,5.07
2022-11-07T20:10:19.531Z,6.03
2022-11-07T20:22:03.795Z,4.40
2022-11-07T20:25:02.878Z,5.25
2022-11-07T20:32:34.409Z,5.18
2022-11-07T20:35:26.334Z,4.68
2022-11-07T20:50:18.820Z,3.78
2022-11-07T20:58:01.202Z,3.50
2022-11-07T21:00:33.845Z,3.55
2022-11-07T21:03:01.227Z,3.55
2022-11-07T21:05:28.406Z,3.03
2022-11-07T21:07:55.456Z,3.47
2022-11-07T21:10:22.371Z,3.47
2022-11-07T21:13:07.917Z,3.00
2022-11-07T21:18:04.376Z,3.15
2022-11-07T21:20:31.403Z,3.15
2022-11-07T21:22:58.203Z,3.40
2022-11-07T21:25:25.086Z,3.25
2022-11-07T21:27:51.993Z,3.78
2022-11-07T21:30:19.202Z,3.45
2022-11-07T21:32:46.279Z,2.80
2022-11-07T21:35:14.095Z,3.63
2022-11-07T21:37:41.013Z,3.35
2022-11-07T21:40:09.341Z,3.65
2022-11-07T21:42:36.258Z,3.47
2022-11-07T21:45:03.342Z,3.40
2022-11-07T21:47:30.726Z,3.28
2022-11-07T21:49:57.674Z,3.85
2022-11-07T21:55:23.480Z,2.67
2022-11-07T21:57:50.958Z,2.80
2022-11-07T22:00:18.204Z,3.10
2022-11-07T22:02:45.049Z,2.95
2022-11-07T22:05:15.302Z,2.90
2022-11-07T22:07:42.265Z,2.90
2022-11-07T22:10:10.025Z,3.08
2022-11-07T22:12:37.024Z,2.60
2022-11-07T22:15:04.486Z,2.75
2022-11-07T22:17:31.327Z,2.70
2022-11-07T22:19:58.172Z,2.90
2022-11-07T22:22:25.008Z,3.10
2022-11-07T22:24:51.971Z,2.65
2022-11-07T22:27:18.848Z,2.88
2022-11-07T22:29:46.860Z,2.95
2022-11-07T22:32:14.077Z,2.85
2022-11-07T22:34:40.986Z,3.20
2022-11-07T22:37:07.829Z,3.50
2022-11-07T22:39:34.602Z,2.65
2022-11-07T22:42:02.720Z,3.15
2022-11-07T22:44:29.665Z,3.03
2022-11-07T22:46:56.642Z,2.60
2022-11-07T22:49:23.620Z,3.00
2022-11-07T22:51:50.523Z,2.25
2022-11-07T22:54:17.412Z,2.65
2022-11-07T22:56:44.283Z,2.53
2022-11-07T22:59:11.695Z,2.72
2022-11-07T23:01:42.072Z,2.97
2022-11-07T23:04:14.124Z,2.35
2022-11-07T23:06:41.847Z,2.50
2022-11-07T23:09:08.707Z,2.33
2022-11-07T23:11:51.633Z,2.75
2022-11-07T23:14:21.363Z,2.53
2022-11-07T23:16:55.305Z,1.60
2022-11-07T23:19:25.488Z,2.28
2022-11-07T23:21:54.978Z,2.28
2022-11-07T23:24:22.707Z,2.08
2022-11-07T23:26:50.044Z,2.10
2022-11-07T23:29:23.985Z,2.20
2022-11-07T23:31:52.258Z,2.15
2022-11-07T23:34:21.290Z,2.30
2022-11-07T23:36:53.983Z,2.55
2022-11-07T23:39:23.202Z,2.42
2022-11-07T23:41:50.343Z,2.67
2022-11-07T23:44:17.262Z,2.20
2022-11-07T23:47:03.114Z,1.75
2022-11-07T23:49:48.945Z,1.60
2022-11-07T23:52:16.701Z,2.13
2022-11-07T23:55:02.552Z,2.35
2022-11-07T23:57:33.254Z,2.22
